Flight Track Log - Related Links

Times and Time Zones

All times are in EDT time to prevent confusion due to time zone crossing. See the DAL1636 flight status page for this flight to view local times or setup timezone preferences in your user account.

Time Position Orientation Groundspeed Altitude Reporting Facility
EDT Latitude Longitude Course Direction KTS MPH feet Rate Location/Type
Thu 08:23:20 PM 42.2058 -83.3556 114° Southeast 151 174 1,400  Level Cleveland Center
Thu 08:23:48 PM 42.1889 -83.3569 183° South 176 203 2,200 1,625 Climbing FAA TRACON SMA TRACON (SMA)
Thu 08:24:08 PM 42.1692 -83.3608 188° South 209 241 2,700 1,500 Climbing FAA TRACON SMA TRACON (SMA)
Thu 08:24:28 PM 42.1517 -83.3644 189° South 228 262 3,200 1,846 Climbing FAA TRACON SMA TRACON (SMA)
Thu 08:24:47 PM 42.1258 -83.3694 188° South 252 290 3,900 2,550 Climbing FAA TRACON SMA TRACON (SMA)
Thu 08:25:08 PM 42.1003 -83.3739 187° South 260 299 4,900 3,000 Climbing FAA TRACON SMA TRACON (SMA)
Thu 08:25:27 PM 42.0808 -83.3717 175° South 282 325 5,900 3,385 Climbing FAA TRACON SMA TRACON (SMA)
Thu 08:25:47 PM 42.0581 -83.3497 144° Southeast 302 348 7,100 4,200 Climbing FAA TRACON SMA TRACON (SMA)
Thu 08:26:00 PM 42.1402 -82.8784 98° East  Level FlightAware Approximate
Thu 08:26:07 PM 42.0364 -83.3211 136° Southeast 283 326 8,700  Level FAA TRACON SMA TRACON (SMA)
Thu 08:26:27 PM 42.0200 -83.2986 134° Southeast 278 320 9,500 1,756 Climbing FAA TRACON SMA TRACON (SMA)
Thu 08:26:48 PM 42.0036 -83.2767 135° Southeast 274 315 9,900 750 Climbing FAA TRACON SMA TRACON (SMA)
Thu 08:27:00 PM 42.1136 -82.7219 98° East  Level FlightAware Approximate
Thu 08:27:07 PM 41.9897 -83.2419 118° Southeast 302 348 10,000  Level FAA TRACON SMA TRACON (SMA)
Thu 08:27:27 PM 41.9833 -83.2092 105° East 295 339 10,100 146 Climbing FAA TRACON SMA TRACON (SMA)
Thu 08:27:48 PM 41.9853 -83.1658 87° East 326 375 10,100  Level FAA TRACON SMA TRACON (SMA)
Thu 08:28:00 PM 42.0936 -82.5640 114° Southeast  Level FlightAware Approximate
Thu 08:28:08 PM 41.9906 -83.1292 79° East 325 374 10,100  Level FAA TRACON SMA TRACON (SMA)
Thu 08:28:27 PM 41.9953 -83.0922 80° East 328 377 10,000 150 Descending FAA TRACON SMA TRACON (SMA)
Thu 08:28:48 PM 42.0014 -83.0456 80° East 329 379 10,200 900 Climbing FAA TRACON SMA TRACON (SMA)
Thu 08:29:07 PM 42.0064 -83.0086 80° East 328 377 10,600 1,077 Climbing FAA TRACON SMA TRACON (SMA)
Thu 08:29:27 PM 42.0114 -82.9719 80° East 329 379 10,900 1,200 Climbing FAA TRACON SMA TRACON (SMA)
Thu 08:29:47 PM 42.0194 -82.9206 78° East 385 443 11,400 1,950 Climbing FAA TRACON SMA TRACON (SMA)
Thu 08:30:07 PM 42.0267 -82.8778 77° East 391 450 12,200 2,341 Climbing FAA TRACON SMA TRACON (SMA)
Thu 08:30:28 PM 42.0344 -82.8350 76° East 388 447 13,000 2,550 Climbing FAA TRACON SMA TRACON (SMA)
Thu 08:30:47 PM 42.0436 -82.7808 77° East 389 448 13,900 2,462 Climbing FAA TRACON SMA TRACON (SMA)
Thu 08:31:07 PM 42.0508 -82.7369 77° East 392 451 14,600 2,400 Climbing FAA TRACON SMA TRACON (SMA)
Thu 08:31:27 PM 42.0592 -82.6817 79° East 394 453 15,500 2,250 Climbing FAA TRACON SMA TRACON (SMA)
Thu 08:31:47 PM 42.0658 -82.6361 79° East 400 460 16,100 1,902 Climbing FAA TRACON SMA TRACON (SMA)
Thu 08:32:08 PM 42.0728 -82.5897 79° East 407 468 16,800 2,250 Climbing FAA TRACON SMA TRACON (SMA)
Thu 08:32:27 PM 42.0814 -82.5314 79° East 413 475 17,600 2,400 Climbing FAA TRACON SMA TRACON (SMA)
Thu 08:32:48 PM 42.0836 -82.4847 86° East 404 465 18,400 1,800 Climbing FAA TRACON SMA TRACON (SMA)
Thu 08:33:07 PM 42.0811 -82.4375 94° East 412 474 18,800 1,846 Climbing FAA TRACON SMA TRACON (SMA)
Thu 08:33:27 PM 42.0739 -82.3797 100° East 411 473 19,600 2,049 Climbing FAA TRACON SMA TRACON (SMA)
Thu 08:33:48 PM 42.0667 -82.3339 102° East 412 474 20,200 1,463 Climbing FAA TRACON SMA TRACON (SMA)
Thu 08:34:08 PM 42.0589 -82.2808 101° East 415 478 20,600 1,610 Climbing FAA TRACON SMA TRACON (SMA)
Thu 08:34:29 PM 42.0531 -82.2356 100° East 418 481 21,300 2,100 Climbing FAA TRACON SMA TRACON (SMA)
Thu 08:34:48 PM 42.0467 -82.1978 103° East 419 482 22,000 712 Climbing FAA TRACON SMA TRACON (SMA)
Thu 08:35:28 PM 42.0467 -82.1978 154° Southeast 419 482 22,000 1,636 Level FAA TRACON SMA TRACON (SMA)
Thu 08:36:38 PM 41.9306 -81.9758 125° Southeast 381 438 25,000 1,985 Climbing Cleveland Center
Thu 08:37:38 PM 41.8378 -81.8903 146° Southeast 397 457 26,300 1,000 Climbing Cleveland Center
Thu 08:38:38 PM 41.7431 -81.7992 144° Southeast 408 470 27,000 350 Climbing Cleveland Center
Thu 08:39:38 PM 41.6439 -81.7056 145° Southeast 427 491 27,000  Level Cleveland Center
Thu 08:40:38 PM 41.5386 -81.6011 143° Southeast 427 491 27,000  Level Cleveland Center
Thu 08:41:38 PM 41.4392 -81.5083 145° Southeast 427 491 27,000  Level Cleveland Center
Thu 08:42:38 PM 41.3522 -81.4239 144° Southeast 427 491 27,000  Level Cleveland Center
Thu 08:43:38 PM 41.2342 -81.3147 145° Southeast 457 526 27,000  Level Cleveland Center
Thu 08:44:38 PM 41.1306 -81.2200 145° Southeast 462 532 27,000  Level Cleveland Center
Thu 08:45:38 PM 41.0372 -81.1308 144° Southeast 462 532 27,000  Level Cleveland Center
Thu 08:46:38 PM 40.9378 -81.0283 142° Southeast 456 525 27,000  Level Cleveland Center
Thu 08:47:38 PM 40.8339 -80.9344 146° Southeast 451 519 27,000  Level Cleveland Center
Thu 08:48:38 PM 40.7319 -80.8378 144° Southeast 451 519 27,000  Level Cleveland Center
Thu 08:49:38 PM 40.6258 -80.7389 145° Southeast 451 519 27,000  Level Cleveland Center
Thu 08:50:38 PM 40.5217 -80.6431 145° Southeast 451 519 27,000  Level Cleveland Center
Thu 08:51:38 PM 40.4194 -80.5478 145° Southeast 451 519 27,000  Level Cleveland Center
Thu 08:52:38 PM 40.3131 -80.4525 146° Southeast 456 525 27,000  Level Cleveland Center
Thu 08:53:38 PM 40.2086 -80.3547 144° Southeast 456 525 27,000  Level Cleveland Center
Thu 08:54:38 PM 40.0939 -80.2519 146° Southeast 463 533 27,000  Level Cleveland Center
Thu 08:57:00 PM 39.9500 -79.9381 121° Southeast 441 507 27,000  Level Washington Center
Thu 08:57:59 PM 39.8972 -79.7808 114° Southeast 458 527 27,000  Level Washington Center
Thu 08:58:59 PM 39.8483 -79.6292 113° Southeast 463 533 27,000  Level Washington Center
Thu 08:59:59 PM 39.7947 -79.4778 115° Southeast 458 527 27,000 -400 Level Washington Center
Thu 09:00:59 PM 39.7453 -79.3294 113° Southeast 453 521 26,200 -900 Descending Washington Center
Thu 09:01:59 PM 39.6956 -79.1839 114° Southeast 453 521 25,200 -950 Descending Washington Center
Thu 09:02:59 PM 39.6500 -79.0333 111° Southeast 447 514 24,300 -900 Descending Washington Center
Thu 09:03:59 PM 39.6111 -78.8617 106° East 441 507 23,400 -800 Descending Washington Center
Thu 09:04:59 PM 39.5775 -78.7094 106° East 441 507 22,700 -1,350 Descending Washington Center
Thu 09:05:59 PM 39.5458 -78.5628 106° East 441 507 20,700 -2,200 Descending Washington Center
Thu 09:06:59 PM 39.5119 -78.4133 106° East 436 502 18,300 -2,250 Descending Washington Center
Thu 09:07:59 PM 39.4817 -78.2750 106° East 425 489 16,200 -1,650 Descending Washington Center
Thu 09:08:59 PM 39.4514 -78.1394 106° East 405 466 15,000 -600 Descending Washington Center
Thu 09:09:59 PM 39.4228 -78.0069 106° East 392 451 15,000  Level Washington Center
Thu 09:11:00 PM 39.4089 -77.8694 97° East 382 440 15,000 -700 Level Washington Center
Thu 09:11:59 PM 39.4197 -77.7272 84° East 382 440 13,600 -1,750 Descending Washington Center
Thu 09:13:00 PM 39.4283 -77.5931 85° East 382 440 11,500 -1,350 Descending Washington Center
Thu 09:13:59 PM 39.4386 -77.4644 84° East 376 433 10,900 -252 Descending Washington Center
Thu 09:14:59 PM 39.4486 -77.3492 84° East 349 402 11,000 75 Climbing Washington Center
Thu 09:15:19 PM 39.4500 -77.3167 87° East 320 368 11,000 -675 Level Potomac TRACON
Thu 09:16:19 PM 39.4667 -77.2000 79° East 318 366 10,100 -1,190 Descending Potomac TRACON
Thu 09:17:20 PM 39.4500 -77.1000 102° East 301 346 8,600 -1,587 Descending Potomac TRACON
Thu 09:18:20 PM 39.4000 -77.0500 142° Southeast 265 305 6,900 -1,579 Descending Potomac TRACON
Thu 09:19:14 PM 39.3333 -77.0000 150° Southeast 257 296 5,600 -1,461 Descending Potomac TRACON
Thu 09:20:15 PM 39.2833 -76.9500 142° Southeast 259 298 4,100 -1,190 Descending Potomac TRACON
Thu 09:21:15 PM 39.2333 -76.8833 134° Southeast 232 267 3,200 -800 Descending Potomac TRACON
Thu 09:22:15 PM 39.2167 -76.8167 108° East 173 199 2,500 -700 Descending Potomac TRACON

Login

Don't have an account? Register now (free) for customized features, flight alerts, and more!